KCVO - Corvallis Muni A, Oregon
Updated: Wed, 28-Oct-2020 3:13am PDT
NOT Current
Mist, Few clouds
Mist, Few clouds
 Wind from calm
Wind: Calm
Temperature: 36°F , 2°C
Dew Point: 34°F , 1°C
Humidity: 93%
Barometer: 30.29 inHg , 1025.7 hPa
Summary: Mist
Clouds: Few Clouds
Visibility: 1 3/4 miles , 2.8 km
Cloud details: Few Clouds 200 ft
2020/10/28 10:13 KCVO 281013Z AUTO 00000KT 1 3/4SM BR FEW002 02/01 A3029 RMK AO2 FZRANO